^^
Daily Summary for February 25, 2021 Units:  Metric    English   Both
Daily Weekly Monthly Yearly Custom
  High: Low: Average:
Temperature: 18.3 °C 1.1 °C 8.4 °C
Dew Point: 1.1 °C -11.1 °C -4.3 °C
Humidity: 67% 17% 43%
Wind Speed: 33.8km/h 0km/h 4.2km/h
Wind Gust: 33.8km/h - -
Wind- - SE
Pressure: 1029.3 hPa 1026 hPa -
Precipitation: 0 mm    
Historical Graphs
 
 
Tabular Data for February 25, 2021
Time Temperature Dew Point Pressure Wind Wind Speed Wind Gust Humidity Rainfall Rate (Hourly) solar
00:04 2.8 °C -7.2 °C 1026 hPa Calm     49% 0 mm 0.00 W/m2
00:09 2.8 °C -7.2 °C 1026 hPa Calm     49% 0 mm 0.00 W/m2
00:14 2.2 °C -6.7 °C 1026 hPa Calm     51% 0 mm 0.00 W/m2
00:19 2.2 °C -6.7 °C 1026 hPa Calm     52% 0 mm 0.00 W/m2
00:24 2.2 °C -7.2 °C 1026 hPa Calm     50% 0 mm 0.00 W/m2
00:29 2.2 °C -7.2 °C 1026 hPa Calm     49% 0 mm 0.00 W/m2
00:39 2.2 °C -7.2 °C 1026 hPa Calm   3.2 km/h 48% 0 mm 0.00 W/m2
00:44 2.2 °C -7.2 °C 1026 hPa Calm     48% 0 mm 0.00 W/m2
00:49 2.8 °C -7.8 °C 1026 hPa Calm     47% 0 mm 0.00 W/m2
00:54 2.8 °C -8.3 °C 1026 hPa North 9.7 km/h 3.2 km/h 45% 0 mm 0.00 W/m2
00:59 2.8 °C -9.4 °C 1026 hPa NW 14.5 km/h 9.7 km/h 41% 0 mm 0.00 W/m2
01:04 3.3 °C -8.3 °C 1026 hPa WNW 3.2 km/h 14.5 km/h 42% 0 mm 0.00 W/m2
01:09 3.3 °C -7.8 °C 1026 hPa NW 3.2 km/h 3.2 km/h 44% 0 mm 0.00 W/m2
01:14 3.3 °C -8.9 °C 1026 hPa WNW 3.2 km/h 3.2 km/h 41% 0 mm 0.00 W/m2
01:19 3.3 °C -8.9 °C 1026 hPa WNW 3.2 km/h 1.6 km/h 40% 0 mm 0.00 W/m2
01:24 3.9 °C -8.3 °C 1026 hPa Calm   3.2 km/h 42% 0 mm 0.00 W/m2
01:29 3.9 °C -8.3 °C 1026 hPa ESE 3.2 km/h   41% 0 mm 0.00 W/m2
01:34 3.9 °C -8.3 °C 1026 hPa ESE 3.2 km/h 3.2 km/h 41% 0 mm 0.00 W/m2
01:39 3.9 °C -7.8 °C 1026 hPa ESE 3.2 km/h 3.2 km/h 42% 0 mm 0.00 W/m2
01:44 3.9 °C -7.2 °C 1026 hPa ESE 3.2 km/h 3.2 km/h 43% 0 mm 0.00 W/m2
01:49 3.9 °C -7.2 °C 1026 hPa Calm   3.2 km/h 43% 0 mm 0.00 W/m2
01:54 3.9 °C -7.2 °C 1026 hPa Calm     43% 0 mm 0.00 W/m2
01:59 3.9 °C -7.2 °C 1026 hPa Calm     43% 0 mm 0.00 W/m2
02:04 3.9 °C -7.2 °C 1026 hPa Calm     44% 0 mm 0.00 W/m2
02:09 3.9 °C -7.2 °C 1026 hPa Calm     44% 0 mm 0.00 W/m2
02:14 3.9 °C -7.2 °C 1026 hPa SE 6.4 km/h 1.6 km/h 45% 0 mm 0.00 W/m2
02:19 3.9 °C -7.2 °C 1026 hPa Calm   4.8 km/h 45% 0 mm 0.00 W/m2
02:24 3.9 °C -7.2 °C 1026 hPa Calm     45% 0 mm 0.00 W/m2
02:29 3.9 °C -7.2 °C 1026 hPa Calm     45% 0 mm 0.00 W/m2
02:34 3.3 °C -7.2 °C 1026 hPa Calm     45% 0 mm 0.00 W/m2
02:39 3.3 °C -7.2 °C 1026 hPa Calm     45% 0 mm 0.00 W/m2
02:44 3.3 °C -7.2 °C 1026 hPa Calm     45% 0 mm 0.00 W/m2
02:49 3.3 °C -7.2 °C 1026 hPa Calm     47% 0 mm 0.00 W/m2
02:54 3.3 °C -7.8 °C 1026 hPa Calm     45% 0 mm 0.00 W/m2
02:59 3.3 °C -7.2 °C 1026 hPa Calm     46% 0 mm 0.00 W/m2
03:04 2.8 °C -7.8 °C 1026 hPa Calm     46% 0 mm 0.00 W/m2
03:09 2.8 °C -7.8 °C 1026 hPa Calm     46% 0 mm 0.00 W/m2
03:14 2.8 °C -6.1 °C 1026 hPa Calm     52% 0 mm 0.00 W/m2
03:19 2.8 °C -6.7 °C 1026 hPa Calm     51% 0 mm 0.00 W/m2
03:24 2.2 °C -6.7 °C 1026 hPa Calm     52% 0 mm 0.00 W/m2
03:29 2.2 °C -6.7 °C 1026 hPa Calm     52% 0 mm 0.00 W/m2
03:34 2.2 °C -7.2 °C 1026 hPa Calm     50% 0 mm 0.00 W/m2
03:39 2.2 °C -7.8 °C 1026 hPa Calm     48% 0 mm 0.00 W/m2
03:44 1.7 °C -7.8 °C 1026 hPa Calm     48% 0 mm 0.00 W/m2
03:49 1.7 °C -8.3 °C 1026 hPa Calm     48% 0 mm 0.00 W/m2
03:54 1.7 °C -7.8 °C 1026 hPa Calm     49% 0 mm 0.00 W/m2
03:59 1.7 °C -7.8 °C 1026 hPa Calm     50% 0 mm 0.00 W/m2
04:04 1.7 °C -7.2 °C 1026 hPa Calm     52% 0 mm 0.00 W/m2
04:09 1.7 °C -7.2 °C 1026 hPa Calm     52% 0 mm 0.00 W/m2
04:14 1.1 °C -7.2 °C 1026 hPa Calm     52% 0 mm 0.00 W/m2
04:19 1.1 °C -7.2 °C 1026 hPa Calm     52% 0 mm 0.00 W/m2
04:24 1.1 °C -7.8 °C 1026 hPa Calm     51% 0 mm 0.00 W/m2
04:29 1.1 °C -7.8 °C 1026 hPa Calm     51% 0 mm 0.00 W/m2
04:34 1.1 °C -7.8 °C 1026 hPa Calm     51% 0 mm 0.00 W/m2
04:39 1.1 °C -7.8 °C 1026 hPa Calm     52% 0 mm 0.00 W/m2
04:44 1.1 °C -7.8 °C 1026 hPa Calm     51% 0 mm 0.00 W/m2
04:49 1.1 °C -8.3 °C 1026 hPa Calm     50% 0 mm 0.00 W/m2
04:54 1.1 °C -7.8 °C 1026 hPa Calm     52% 0 mm 0.00 W/m2
04:59 1.1 °C -7.8 °C 1026 hPa Calm     52% 0 mm 0.00 W/m2
05:04 1.1 °C -7.8 °C 1026 hPa Calm     51% 0 mm 0.00 W/m2
05:09 1.1 °C -7.8 °C 1026 hPa Calm     52% 0 mm 0.00 W/m2
05:14 1.1 °C -7.8 °C 1026 hPa Calm     52% 0 mm 0.00 W/m2
05:19 1.1 °C -7.8 °C 1026 hPa Calm     51% 0 mm 0.00 W/m2
05:24 1.1 °C -8.3 °C 1026 hPa Calm     51% 0 mm 0.00 W/m2
05:29 1.1 °C -8.3 °C 1026 hPa Calm     50% 0 mm 0.00 W/m2
05:34 1.1 °C -8.3 °C 1026 hPa Calm     50% 0 mm 0.00 W/m2
05:39 1.1 °C -8.3 °C 1026 hPa Calm     50% 0 mm 0.00 W/m2
05:44 1.1 °C -8.3 °C 1026 hPa Calm     49% 0 mm 0.00 W/m2
05:49 1.1 °C -8.9 °C 1026 hPa Calm     49% 0 mm 0.00 W/m2
05:54 1.1 °C -8.3 °C 1026 hPa Calm     50% 0 mm 0.00 W/m2
05:59 1.1 °C -8.3 °C 1026 hPa Calm     51% 0 mm 0.00 W/m2
06:04 1.1 °C -8.3 °C 1026 hPa Calm     50% 0 mm 0.00 W/m2
06:09 1.1 °C -7.8 °C 1026 hPa Calm     51% 0 mm 0.00 W/m2
06:14 1.1 °C -7.8 °C 1026 hPa Calm     51% 0 mm 0.00 W/m2
06:19 1.1 °C -8.3 °C 1026 hPa Calm     50% 0 mm 0.00 W/m2
06:24 1.1 °C -7.8 °C 1026 hPa Calm     51% 0 mm 0.00 W/m2
06:29 1.1 °C -7.2 °C 1026 hPa Calm     55% 0 mm 0.00 W/m2
06:34 1.1 °C -7.2 °C 1026 hPa Calm     55% 0 mm 0.00 W/m2
06:39 1.1 °C -7.2 °C 1026 hPa Calm     54% 0 mm 0.00 W/m2
06:44 1.1 °C -7.2 °C 1026 hPa Calm     53% 0 mm 0.00 W/m2
06:49 1.1 °C -7.2 °C 1026 hPa Calm     53% 0 mm 5.00 W/m2
06:54 1.1 °C -7.2 °C 1029.3 hPa Calm     53% 0 mm 7.00 W/m2
06:59 1.1 °C -7.2 °C 1029.3 hPa Calm     54% 0 mm 9.00 W/m2
07:04 1.1 °C -7.2 °C 1029.3 hPa Calm     54% 0 mm 11.00 W/m2
07:09 1.1 °C -7.8 °C 1029.3 hPa Calm     53% 0 mm 12.00 W/m2
07:14 1.1 °C -7.2 °C 1029.3 hPa Calm     55% 0 mm 14.00 W/m2
07:19 1.1 °C -7.2 °C 1029.3 hPa Calm     55% 0 mm 16.00 W/m2
07:24 1.1 °C -6.7 °C 1029.3 hPa Calm     56% 0 mm 18.00 W/m2
07:29 1.1 °C -6.7 °C 1029.3 hPa Calm     56% 0 mm 19.00 W/m2
07:34 1.1 °C -6.7 °C 1029.3 hPa Calm     57% 0 mm 19.00 W/m2
07:39 1.1 °C -6.1 °C 1029.3 hPa Calm     59% 0 mm 23.00 W/m2
07:44 1.1 °C -6.1 °C 1029.3 hPa Calm     59% 0 mm 46.00 W/m2
07:49 1.1 °C -6.1 °C 1029.3 hPa Calm     58% 0 mm 46.00 W/m2
07:54 1.7 °C -6.1 °C 1029.3 hPa Calm     58% 0 mm 28.00 W/m2
07:59 1.7 °C -5.6 °C 1029.3 hPa Calm     58% 0 mm 32.00 W/m2
08:04 1.7 °C -6.7 °C 1029.3 hPa Calm     54% 0 mm 32.00 W/m2
08:09 2.2 °C -6.1 °C 1029.3 hPa Calm     55% 0 mm 32.00 W/m2
08:14 2.8 °C -5.6 °C 1029.3 hPa Calm     56% 0 mm 32.00 W/m2
08:19 2.8 °C -5 °C 1029.3 hPa Calm     57% 0 mm 32.00 W/m2
08:24 3.3 °C -5 °C 1029.3 hPa Calm     57% 0 mm 142.00 W/m2
08:29 3.3 °C -6.7 °C 1029.3 hPa NNE 3.2 km/h   49% 0 mm 378.00 W/m2
08:34 3.9 °C -8.3 °C 1029.3 hPa NNW 3.2 km/h 3.2 km/h 41% 0 mm 390.00 W/m2
08:39 4.4 °C -8.3 °C 1029.3 hPa NW 3.2 km/h 3.2 km/h 39% 0 mm 415.00 W/m2
08:44 5 °C -7.2 °C 1029.3 hPa Calm   3.2 km/h 40% 0 mm 438.00 W/m2
08:49 5.6 °C -7.2 °C 1029.3 hPa NW 3.2 km/h 3.2 km/h 40% 0 mm 464.00 W/m2
08:54 6.1 °C -7.2 °C 1029.3 hPa NW 3.2 km/h   39% 0 mm 485.00 W/m2
08:58 6.7 °C -7.2 °C 1029.3 hPa NNW 3.2 km/h 3.2 km/h 38% 0 mm 492.00 W/m2
09:04 7.2 °C -7.8 °C 1029.3 hPa North 3.2 km/h 3.2 km/h 35% 0 mm 394.00 W/m2
09:09 7.8 °C -7.8 °C 1029.3 hPa Calm   3.2 km/h 32% 0 mm 394.00 W/m2
09:14 8.3 °C -7.8 °C 1029.3 hPa Calm     32% 0 mm 431.00 W/m2
09:19 8.9 °C -7.2 °C 1029.3 hPa NE 3.2 km/h   32% 0 mm 497.00 W/m2
09:24 9.4 °C -7.2 °C 1029.3 hPa NE 3.2 km/h 3.2 km/h 31% 0 mm 519.00 W/m2
09:29 10 °C -7.2 °C 1029.3 hPa NNE 3.2 km/h 3.2 km/h 30% 0 mm 612.00 W/m2
09:34 10.6 °C -7.8 °C 1029.3 hPa North 3.2 km/h 3.2 km/h 27% 0 mm 617.00 W/m2
09:39 11.1 °C -7.8 °C 1029.3 hPa NW 3.2 km/h 3.2 km/h 26% 0 mm 527.00 W/m2
09:44 11.1 °C -7.8 °C 1029.3 hPa NW 9.7 km/h 9.7 km/h 26% 0 mm 508.00 W/m2
09:49 11.7 °C -9.4 °C 1029.3 hPa NNW 3.2 km/h 3.2 km/h 22% 0 mm 425.00 W/m2
09:54 12.2 °C -10.6 °C 1029.3 hPa Calm   3.2 km/h 20% 0 mm 401.00 W/m2
09:59 12.2 °C -10.6 °C 1029.3 hPa NW 3.2 km/h   19% 0 mm 401.00 W/m2
10:04 12.2 °C -10.6 °C 1029.3 hPa Calm   3.2 km/h 19% 0 mm 441.00 W/m2
10:09 12.8 °C -10.6 °C 1029.3 hPa NNW 6.4 km/h 1.6 km/h 19% 0 mm 520.00 W/m2
10:11 12.8 °C -11.1 °C 1029.3 hPa North 3.2 km/h 4.8 km/h 18% 0 mm 543.00 W/m2
10:19 13.3 °C -10 °C 1029.3 hPa North 3.2 km/h 3.2 km/h 19% 0 mm 629.00 W/m2
10:24 13.3 °C -10.6 °C 1029.3 hPa NW 9.7 km/h 3.2 km/h 18% 0 mm 610.00 W/m2
10:29 13.9 °C -11.1 °C 1029.3 hPa NNW 3.2 km/h 9.7 km/h 17% 0 mm 621.00 W/m2
10:34 13.9 °C -10.6 °C 1029.3 hPa NW 6.4 km/h 3.2 km/h 17% 0 mm 708.00 W/m2
10:39 14.4 °C -9.4 °C 1029.3 hPa NNW 9.7 km/h 4.8 km/h 18% 0 mm 708.00 W/m2
10:44 14.4 °C -6.7 °C 1029.3 hPa ENE 6.4 km/h 9.7 km/h 22% 0 mm 691.00 W/m2
10:49 15 °C -6.1 °C 1029.3 hPa NW 11.3 km/h 4.8 km/h 23% 0 mm 680.00 W/m2
10:54 15 °C -6.1 °C 1029.3 hPa ENE 11.3 km/h 11.3 km/h 23% 0 mm 703.00 W/m2
10:59 15.6 °C -5 °C 1029.3 hPa NNW 9.7 km/h 11.3 km/h 24% 0 mm 693.00 W/m2
11:04 15.6 °C -4.4 °C 1029.3 hPa NNE 3.2 km/h 9.7 km/h 25% 0 mm 724.00 W/m2
11:09 15.6 °C -5 °C 1029.3 hPa North 6.4 km/h 3.2 km/h 24% 0 mm 745.00 W/m2
11:13 16.1 °C -4.4 °C 1029.3 hPa NW 9.7 km/h 6.4 km/h 24% 0 mm 758.00 W/m2
11:19 16.1 °C -5 °C 1029.3 hPa North 19.3 km/h 14.5 km/h 23% 0 mm 763.00 W/m2
11:24 16.1 °C -3.9 °C 1029.3 hPa ENE 20.9 km/h 20.9 km/h 25% 0 mm 744.00 W/m2
11:29 16.1 °C -3.3 °C 1029.3 hPa ENE 11.3 km/h 11.3 km/h 26% 0 mm 740.00 W/m2
11:34 16.1 °C -3.9 °C 1029.3 hPa ENE 22.5 km/h 17.7 km/h 25% 0 mm 756.00 W/m2
11:39 16.1 °C -3.9 °C 1029.3 hPa ENE 14.5 km/h 22.5 km/h 25% 0 mm 758.00 W/m2
11:44 16.1 °C -3.9 °C 1029.3 hPa East 19.3 km/h 11.3 km/h 25% 0 mm 758.00 W/m2
11:49 16.1 °C -2.8 °C 1029.3 hPa ENE 20.9 km/h 20.9 km/h 27% 0 mm 766.00 W/m2
11:54 16.1 °C -2.8 °C 1029.3 hPa NE 25.7 km/h 25.7 km/h 27% 0 mm 768.00 W/m2
11:59 16.1 °C -2.8 °C 1029.3 hPa ENE 25.7 km/h 17.7 km/h 27% 0 mm 763.00 W/m2
12:04 16.1 °C -3.9 °C 1029.3 hPa NE 33.8 km/h 25.7 km/h 25% 0 mm 761.00 W/m2
12:09 16.1 °C -4.4 °C 1029.3 hPa NE 33.8 km/h 33.8 km/h 25% 0 mm 779.00 W/m2
12:14 15.6 °C -4.4 °C 1029.3 hPa ENE 20.9 km/h 27.4 km/h 25% 0 mm 759.00 W/m2
12:19 15.6 °C -3.9 °C 1029.3 hPa ENE 20.9 km/h 20.9 km/h 26% 0 mm 754.00 W/m2
12:21 15 °C -3.9 °C 1029.3 hPa ENE 29 km/h 20.9 km/h 26% 0 mm 756.00 W/m2
12:29 15 °C -3.3 °C 1029.3 hPa NE 20.9 km/h 27.4 km/h 28% 0 mm 719.00 W/m2
12:34 15 °C -3.3 °C 1029.3 hPa ENE 17.7 km/h 20.9 km/h 28% 0 mm 758.00 W/m2
12:39 15.6 °C -2.8 °C 1029.3 hPa NE 17.7 km/h 16.1 km/h 29% 0 mm 758.00 W/m2
12:44 15.6 °C -2.8 °C 1029.3 hPa NE 25.7 km/h 17.7 km/h 29% 0 mm 635.00 W/m2
12:49 15.6 °C -1.7 °C 1029.3 hPa ENE 14.5 km/h 25.7 km/h 31% 0 mm 543.00 W/m2
12:54 15.6 °C -1.7 °C 1029.3 hPa East 11.3 km/h 11.3 km/h 31% 0 mm 650.00 W/m2
12:59 15.6 °C -1.7 °C 1026 hPa ENE 11.3 km/h 11.3 km/h 31% 0 mm 673.00 W/m2
13:09 16.1 °C -1.1 °C 1026 hPa ENE 9.7 km/h 6.4 km/h 31% 0 mm 587.00 W/m2
13:14 16.1 °C -1.1 °C 1026 hPa NNE 8 km/h 9.7 km/h 31% 0 mm 504.00 W/m2
13:19 16.1 °C -1.1 °C 1026 hPa ENE 17.7 km/h 14.5 km/h 31% 0 mm 622.00 W/m2
13:24 16.1 °C -0.6 °C 1026 hPa East 9.7 km/h 16.1 km/h 32% 0 mm 541.00 W/m2
13:29 16.1 °C -1.1 °C 1026 hPa ENE 11.3 km/h 9.7 km/h 31% 0 mm 550.00 W/m2
13:34 16.1 °C 0 °C 1026 hPa NE 11.3 km/h 11.3 km/h 33% 0 mm 649.00 W/m2
13:39 16.1 °C 0 °C 1026 hPa ENE 17.7 km/h 14.5 km/h 33% 0 mm 691.00 W/m2
13:44 16.1 °C -0.6 °C 1026 hPa East 6.4 km/h 16.1 km/h 32% 0 mm 677.00 W/m2
13:49 16.7 °C 0.6 °C 1026 hPa WNW 3.2 km/h 4.8 km/h 34% 0 mm 664.00 W/m2
13:54 16.7 °C 0 °C 1026 hPa NE 11.3 km/h 9.7 km/h 33% 0 mm 654.00 W/m2
13:59 16.7 °C 0.6 °C 1026 hPa NNE 6.4 km/h 11.3 km/h 33% 0 mm 645.00 W/m2
14:04 17.2 °C 0.6 °C 1026 hPa WNW 6.4 km/h 4.8 km/h 33% 0 mm 631.00 W/m2
14:09 17.2 °C 0.6 °C 1026 hPa East 14.5 km/h 6.4 km/h 32% 0 mm 619.00 W/m2
14:14 17.2 °C 0.6 °C 1026 hPa ENE 9.7 km/h 14.5 km/h 32% 0 mm 619.00 W/m2
14:19 17.8 °C 0.6 °C 1026 hPa NE 17.7 km/h 11.3 km/h 32% 0 mm 608.00 W/m2
14:24 17.8 °C 0.6 °C 1026 hPa NE 14.5 km/h 16.1 km/h 31% 0 mm 601.00 W/m2
14:29 17.8 °C 0.6 °C 1026 hPa ENE 14.5 km/h 12.9 km/h 31% 0 mm 584.00 W/m2
14:34 17.8 °C 0.6 °C 1026 hPa NE 17.7 km/h 14.5 km/h 31% 0 mm 573.00 W/m2
14:39 17.8 °C 0.6 °C 1026 hPa NE 11.3 km/h 16.1 km/h 31% 0 mm 552.00 W/m2
14:44 17.8 °C 0 °C 1026 hPa ENE 9.7 km/h 11.3 km/h 30% 0 mm 543.00 W/m2
14:49 17.8 °C 0 °C 1026 hPa ENE 11.3 km/h 9.7 km/h 30% 0 mm 524.00 W/m2
14:53 17.8 °C 0.6 °C 1026 hPa NE 14.5 km/h 14.5 km/h 31% 0 mm 510.00 W/m2
14:59 17.8 °C 0.6 °C 1026 hPa East 14.5 km/h 9.7 km/h 31% 0 mm 496.00 W/m2
15:04 17.8 °C 0.6 °C 1026 hPa East 3.2 km/h 14.5 km/h 31% 0 mm 483.00 W/m2
15:09 17.8 °C 1.1 °C 1026 hPa NNW 6.4 km/h 3.2 km/h 32% 0 mm 469.00 W/m2
15:14 18.3 °C 0 °C 1026 hPa East 14.5 km/h 9.7 km/h 30% 0 mm 457.00 W/m2
15:19 17.8 °C 0 °C 1026 hPa ENE 9.7 km/h 14.5 km/h 30% 0 mm 446.00 W/m2
15:24 17.8 °C -0.6 °C 1026 hPa ENE 6.4 km/h 9.7 km/h 29% 0 mm 432.00 W/m2
15:29 17.8 °C 0 °C 1026 hPa ENE 14.5 km/h 9.7 km/h 30% 0 mm 424.00 W/m2
15:34 17.8 °C -0.6 °C 1026 hPa East 9.7 km/h 14.5 km/h 29% 0 mm 410.00 W/m2
15:39 17.8 °C -0.6 °C 1026 hPa ENE 14.5 km/h 9.7 km/h 29% 0 mm 392.00 W/m2
15:44 17.8 °C -0.6 °C 1026 hPa ENE 14.5 km/h 14.5 km/h 29% 0 mm 323.00 W/m2
15:49 17.8 °C -0.6 °C 1026 hPa NNE 14.5 km/h 14.5 km/h 29% 0 mm 357.00 W/m2
15:54 17.2 °C -1.1 °C 1026 hPa ENE 11.3 km/h 11.3 km/h 29% 0 mm 327.00 W/m2
15:59 17.2 °C -0.6 °C 1026 hPa NE 11.3 km/h 9.7 km/h 30% 0 mm 325.00 W/m2
16:04 17.2 °C -0.6 °C 1026 hPa East 14.5 km/h 11.3 km/h 30% 0 mm 216.00 W/m2
16:09 17.2 °C -0.6 °C 1026 hPa ESE 9.7 km/h 14.5 km/h 29% 0 mm 195.00 W/m2
16:14 17.2 °C -1.1 °C 1026 hPa East 3.2 km/h 9.7 km/h 28% 0 mm 183.00 W/m2
16:19 17.2 °C -1.1 °C 1026 hPa East 3.2 km/h 3.2 km/h 28% 0 mm 234.00 W/m2
16:24 17.2 °C -1.7 °C 1026 hPa ESE 6.4 km/h 4.8 km/h 27% 0 mm 230.00 W/m2
16:29 17.2 °C -1.1 °C 1026 hPa ESE 6.4 km/h 4.8 km/h 29% 0 mm 211.00 W/m2
16:34 17.2 °C -1.1 °C 1026 hPa Calm   3.2 km/h 29% 0 mm 192.00 W/m2
16:39 17.2 °C -2.2 °C 1026 hPa ENE 9.7 km/h 9.7 km/h 27% 0 mm 39.00 W/m2
16:44 16.7 °C -3.3 °C 1026 hPa East 6.4 km/h 9.7 km/h 25% 0 mm 121.00 W/m2
16:49 16.7 °C -0.6 °C 1026 hPa ESE 3.2 km/h 4.8 km/h 31% 0 mm 91.00 W/m2
16:54 16.1 °C -2.2 °C 1026 hPa ESE 3.2 km/h 3.2 km/h 29% 0 mm 121.00 W/m2
16:59 16.1 °C -0.6 °C 1026 hPa Calm   3.2 km/h 32% 0 mm 111.00 W/m2
17:04 16.1 °C -1.7 °C 1026 hPa ESE 3.2 km/h   30% 0 mm 46.00 W/m2
17:09 15.6 °C -1.7 °C 1026 hPa East 6.4 km/h 3.2 km/h 30% 0 mm 23.00 W/m2
17:14 15.6 °C 0 °C 1026 hPa East 3.2 km/h 4.8 km/h 35% 0 mm 19.00 W/m2
17:19 15.6 °C 0.6 °C 1026 hPa Calm   3.2 km/h 37% 0 mm 18.00 W/m2
17:24 15 °C 0.6 °C 1026 hPa ESE 3.2 km/h   37% 0 mm 16.00 W/m2
17:29 15 °C -0.6 °C 1026 hPa Calm   3.2 km/h 35% 0 mm 12.00 W/m2
17:34 14.4 °C 0 °C 1026 hPa Calm     38% 0 mm 11.00 W/m2
17:39 13.9 °C 0 °C 1026 hPa Calm     38% 0 mm 9.00 W/m2
17:44 13.9 °C 0.6 °C 1026 hPa Calm     41% 0 mm 7.00 W/m2
17:49 13.3 °C 0 °C 1026 hPa Calm     41% 0 mm 5.00 W/m2
17:54 12.8 °C 0.6 °C 1026 hPa Calm     43% 0 mm 0.00 W/m2
17:59 12.2 °C 0 °C 1026 hPa Calm     42% 0 mm 0.00 W/m2
18:04 12.2 °C 0 °C 1026 hPa Calm     43% 0 mm 0.00 W/m2
18:09 11.7 °C -0.6 °C 1026 hPa Calm     42% 0 mm 0.00 W/m2
18:14 11.7 °C -1.1 °C 1026 hPa Calm     42% 0 mm 0.00 W/m2
18:19 11.1 °C -1.1 °C 1026 hPa Calm     44% 0 mm 0.00 W/m2
18:24 10.6 °C -1.1 °C 1026 hPa Calm     46% 0 mm 0.00 W/m2
18:29 10.6 °C -1.1 °C 1026 hPa Calm     47% 0 mm 0.00 W/m2
18:34 10 °C -1.1 °C 1026 hPa Calm     47% 0 mm 0.00 W/m2
18:39 9.4 °C -1.1 °C 1026 hPa Calm     47% 0 mm 0.00 W/m2
18:44 9.4 °C -1.7 °C 1026 hPa Calm     47% 0 mm 0.00 W/m2
18:49 9.4 °C -1.1 °C 1026 hPa Calm     48% 0 mm 0.00 W/m2
18:54 8.9 °C -1.1 °C 1026 hPa Calm     49% 0 mm 0.00 W/m2
18:59 8.9 °C -1.1 °C 1026 hPa Calm     49% 0 mm 0.00 W/m2
19:04 8.3 °C -1.7 °C 1026 hPa Calm     48% 0 mm 0.00 W/m2
19:09 8.3 °C -2.8 °C 1026 hPa Calm     46% 0 mm 0.00 W/m2
19:14 8.3 °C -2.8 °C 1026 hPa Calm     47% 0 mm 0.00 W/m2
19:19 7.8 °C -2.8 °C 1026 hPa Calm     47% 0 mm 0.00 W/m2
19:24 7.8 °C -2.8 °C 1026 hPa Calm     47% 0 mm 0.00 W/m2
19:29 7.8 °C -3.3 °C 1026 hPa Calm     47% 0 mm 0.00 W/m2
19:34 7.2 °C -2.8 °C 1026 hPa Calm     48% 0 mm 0.00 W/m2
19:39 7.2 °C -2.2 °C 1026 hPa Calm     51% 0 mm 0.00 W/m2
19:44 7.2 °C -1.7 °C 1026 hPa Calm     53% 0 mm 0.00 W/m2
19:49 7.2 °C -1.7 °C 1026 hPa Calm     54% 0 mm 0.00 W/m2
19:54 7.2 °C -1.7 °C 1026 hPa Calm     55% 0 mm 0.00 W/m2
19:59 6.7 °C -1.7 °C 1026 hPa Calm     54% 0 mm 0.00 W/m2
20:04 6.7 °C -1.7 °C 1026 hPa Calm     54% 0 mm 0.00 W/m2
20:09 6.7 °C -1.7 °C 1026 hPa Calm     55% 0 mm 0.00 W/m2
20:14 6.7 °C -1.7 °C 1026 hPa Calm     56% 0 mm 0.00 W/m2
20:19 6.7 °C -1.1 °C 1026 hPa Calm     57% 0 mm 0.00 W/m2
20:24 6.7 °C -1.7 °C 1026 hPa Calm     57% 0 mm 0.00 W/m2
20:29 6.1 °C -1.1 °C 1026 hPa Calm     58% 0 mm 0.00 W/m2
20:34 6.1 °C -1.1 °C 1026 hPa Calm     59% 0 mm 0.00 W/m2
20:39 6.1 °C -1.1 °C 1026 hPa Calm     60% 0 mm 0.00 W/m2
20:43 6.1 °C -1.1 °C 1026 hPa Calm     60% 0 mm 0.00 W/m2
20:49 6.1 °C -1.1 °C 1026 hPa Calm     60% 0 mm 0.00 W/m2
20:54 6.1 °C -1.7 °C 1026 hPa ESE 3.2 km/h 3.2 km/h 59% 0 mm 0.00 W/m2
20:59 6.1 °C -1.7 °C 1026 hPa ESE 3.2 km/h 3.2 km/h 59% 0 mm 0.00 W/m2
21:04 5.6 °C -1.1 °C 1026 hPa ESE 3.2 km/h 3.2 km/h 61% 0 mm 0.00 W/m2
21:09 5.6 °C -1.1 °C 1026 hPa ESE 3.2 km/h 3.2 km/h 61% 0 mm 0.00 W/m2
21:14 5.6 °C -1.1 °C 1026 hPa Calm     62% 0 mm 0.00 W/m2
21:19 5.6 °C -1.1 °C 1026 hPa Calm     61% 0 mm 0.00 W/m2
21:24 5.6 °C -1.1 °C 1026 hPa Calm     62% 0 mm 0.00 W/m2
21:29 5.6 °C -1.1 °C 1026 hPa Calm     62% 0 mm 0.00 W/m2
21:34 5.6 °C -1.1 °C 1026 hPa Calm     63% 0 mm 0.00 W/m2
21:39 5.6 °C -0.6 °C 1026 hPa Calm     64% 0 mm 0.00 W/m2
21:44 5.6 °C -0.6 °C 1026 hPa Calm     64% 0 mm 0.00 W/m2
21:49 5.6 °C -0.6 °C 1026 hPa Calm     64% 0 mm 0.00 W/m2
21:54 5.6 °C -0.6 °C 1026 hPa Calm     65% 0 mm 0.00 W/m2
21:59 5.6 °C -0.6 °C 1026 hPa Calm     65% 0 mm 0.00 W/m2
22:04 5.6 °C -0.6 °C 1026 hPa Calm     65% 0 mm 0.00 W/m2
22:09 5 °C -0.6 °C 1026 hPa Calm     66% 0 mm 0.00 W/m2
22:14 5 °C -0.6 °C 1026 hPa Calm     66% 0 mm 0.00 W/m2
22:19 5 °C -0.6 °C 1026 hPa Calm     66% 0 mm 0.00 W/m2
22:24 5 °C -0.6 °C 1026 hPa Calm     66% 0 mm 0.00 W/m2
22:29 5 °C -0.6 °C 1026 hPa Calm     66% 0 mm 0.00 W/m2
22:34 5 °C -0.6 °C 1026 hPa Calm     66% 0 mm 0.00 W/m2
22:39 5 °C -1.1 °C 1026 hPa Calm     66% 0 mm 0.00 W/m2
22:44 5 °C -1.1 °C 1026 hPa Calm     66% 0 mm 0.00 W/m2
22:49 5 °C -0.6 °C 1026 hPa Calm     67% 0 mm 0.00 W/m2
22:54 5 °C -0.6 °C 1026 hPa Calm     67% 0 mm 0.00 W/m2
22:59 5 °C -0.6 °C 1026 hPa Calm     67% 0 mm 0.00 W/m2
23:04 5 °C -1.1 °C 1026 hPa Calm     66% 0 mm 0.00 W/m2
23:09 5 °C -0.6 °C 1026 hPa Calm     67% 0 mm 0.00 W/m2
El Dorado Weather
Compliments of Weather Underground - 2 mb